Terminal Aerodrome Forecast
Issued by NWS

Current Version | Previous Version | Graphics & Text | Print | Product List | Glossary On
Versions: 1 2 3 4 5 6 7 8 9 10 11 12 13 14 15 16 17 18 19 20 21 22 23
000
FTUS41 KRLX 141400 AAA
TAFCKB
TAF AMD
KCKB 141405Z 1414/1512 00000KT P6SM BKN005
     FM141500 00000KT P6SM SCT010
     FM141700 00000KT P6SM FEW040
     FM150700 00000KT 6SM BR SCT040
     FM151000 00000KT 2SM BR FEW040=

USA.gov is the U.S. government's official web portal to all federal, state and local government web resources and services.